SELJ weather

Hacienda La Julia Airport
Julia, Los Rios Province, Ecuador

Public forecast

Using degrees Celsius for public forecast. Weather courtesy of forecast.io.

METAR (pilot weather report)

Closest report is José Joaquín de Olmedo International Airport, 33.7 nm (62.4 km) SW. Retrieved 2019/05/26 04:00 UTC (26 minutes ago):

SEGU 260400Z 22011KT 9999 BKN023 BKN100 26/22 Q1012 NOSIG RMK A2989

TAF (pilot weather forecast)

Forecast is more than 12 hours old.

Closest forecast is José Joaquín de Olmedo International Airport, 33.7 nm (62.4 km) SW. Retrieved 2019/05/25 00:56 UTC (1 day ago):

TAF SEGU 252240Z 2600/2624 20010KT 9999 SCT030 SCT100 FM260700 25006KT 9999 FEW010 BKN020 BKN090 FM261300 05004KT 9999 SCT023 BKN100 FM261800 12005KT 9999 FEW026 SCT100 TX31/2620Z TN24/2610Z